createdAt,value
2017-09-23T00:00:11.573Z,0
2017-09-23T00:00:52.008Z,0
2017-09-23T00:01:32.443Z,0
2017-09-23T00:02:12.872Z,0
2017-09-23T00:02:53.320Z,0
2017-09-23T00:03:33.759Z,0
2017-09-23T00:04:14.210Z,0
2017-09-23T00:04:54.680Z,0
2017-09-23T00:05:35.126Z,0
2017-09-23T00:06:15.637Z,0
2017-09-23T00:06:56.091Z,0
2017-09-23T00:07:36.485Z,0
2017-09-23T00:08:16.914Z,0
2017-09-23T00:08:57.385Z,0
2017-09-23T00:09:37.826Z,0
2017-09-23T00:10:19.183Z,0
2017-09-23T00:10:59.613Z,0
2017-09-23T00:11:40.076Z,0
2017-09-23T00:12:20.527Z,0
2017-09-23T00:13:00.985Z,0
2017-09-23T00:13:42.042Z,0
2017-09-23T00:14:22.465Z,0
2017-09-23T00:15:02.958Z,0
2017-09-23T00:15:43.505Z,0
2017-09-23T00:16:23.995Z,0
2017-09-23T00:17:04.463Z,0
2017-09-23T00:17:44.899Z,0
2017-09-23T00:18:25.329Z,0
2017-09-23T00:19:06.678Z,0
2017-09-23T00:19:47.098Z,0
2017-09-23T00:20:27.542Z,0
2017-09-23T00:21:08.749Z,0
2017-09-23T00:21:49.205Z,0
2017-09-23T00:22:29.634Z,0
2017-09-23T00:23:10.123Z,0
2017-09-23T00:23:50.575Z,0
2017-09-23T00:24:31.097Z,0
2017-09-23T00:25:11.485Z,0
2017-09-23T00:25:51.895Z,0
2017-09-23T00:26:32.348Z,0
2017-09-23T00:27:12.785Z,0
2017-09-23T00:27:53.228Z,0
2017-09-23T00:28:33.664Z,0
2017-09-23T00:29:14.112Z,0
2017-09-23T00:29:54.563Z,0
2017-09-23T00:30:35.036Z,0
2017-09-23T00:31:15.491Z,0
2017-09-23T00:31:55.935Z,0
2017-09-23T00:32:36.419Z,0
2017-09-23T00:33:16.885Z,0
2017-09-23T00:33:57.339Z,0
2017-09-23T00:34:37.784Z,0
2017-09-23T00:35:18.248Z,0
2017-09-23T00:35:58.705Z,0
2017-09-23T00:36:39.124Z,0
2017-09-23T00:37:20.564Z,0
2017-09-23T00:38:01.010Z,0
2017-09-23T00:38:41.433Z,0
2017-09-23T00:39:21.876Z,0
2017-09-23T00:40:02.302Z,0
2017-09-23T00:40:42.835Z,0
2017-09-23T00:41:23.190Z,0
2017-09-23T00:42:03.644Z,0
2017-09-23T00:42:44.073Z,0
2017-09-23T00:43:24.513Z,0
2017-09-23T00:44:04.988Z,0
2017-09-23T00:44:45.464Z,0
2017-09-23T00:45:25.882Z,0
2017-09-23T00:46:06.345Z,0
2017-09-23T00:46:46.820Z,0
2017-09-23T00:47:27.234Z,0
2017-09-23T00:48:07.676Z,0
2017-09-23T00:48:48.135Z,0
2017-09-23T00:49:28.581Z,0
2017-09-23T00:50:09.032Z,0
2017-09-23T00:50:49.485Z,0
2017-09-23T00:51:29.951Z,0
2017-09-23T00:52:10.379Z,0
2017-09-23T00:52:50.832Z,0
2017-09-23T00:53:31.290Z,0
2017-09-23T00:54:11.750Z,0
2017-09-23T00:54:52.217Z,0
2017-09-23T00:55:32.624Z,0
2017-09-23T00:56:13.062Z,0
2017-09-23T00:56:53.532Z,0
2017-09-23T00:57:33.966Z,0
2017-09-23T00:58:14.455Z,0
2017-09-23T00:58:54.884Z,0
2017-09-23T00:59:35.358Z,0
2017-09-23T01:00:15.803Z,0
2017-09-23T01:00:56.259Z,0
2017-09-23T01:01:36.724Z,0
2017-09-23T01:02:17.152Z,0
2017-09-23T01:02:57.608Z,0
2017-09-23T01:03:38.051Z,0
2017-09-23T01:04:18.509Z,0
2017-09-23T01:04:58.957Z,0
2017-09-23T01:05:39.477Z,0
2017-09-23T01:06:19.974Z,0
2017-09-23T01:07:00.454Z,0
2017-09-23T01:07:40.931Z,0
2017-09-23T01:08:21.404Z,0
2017-09-23T01:09:01.883Z,0
2017-09-23T01:11:19.720Z,0
2017-09-23T01:12:00.213Z,0
2017-09-23T01:12:40.693Z,0
2017-09-23T01:13:21.207Z,0
2017-09-23T01:14:01.558Z,0
2017-09-23T01:14:42.020Z,0
2017-09-23T01:15:22.500Z,0
2017-09-23T01:16:02.943Z,0
2017-09-23T01:16:43.361Z,0
2017-09-23T01:17:24.402Z,0
2017-09-23T01:18:04.838Z,0
2017-09-23T01:18:45.285Z,0
2017-09-23T01:19:25.762Z,0
2017-09-23T01:20:06.157Z,0
2017-09-23T01:20:46.618Z,0
2017-09-23T01:21:27.076Z,0
2017-09-23T01:22:07.514Z,0
2017-09-23T01:22:47.939Z,0
2017-09-23T01:27:03.439Z,0
2017-09-23T01:27:43.905Z,0
2017-09-23T01:30:22.963Z,0
2017-09-23T01:31:03.432Z,0
2017-09-23T01:31:44.187Z,0
2017-09-23T01:32:24.528Z,0
2017-09-23T01:33:04.953Z,0
2017-09-23T01:33:45.408Z,0
2017-09-23T01:34:25.851Z,0
2017-09-23T01:35:06.327Z,0
2017-09-23T01:35:46.781Z,0
2017-09-23T01:36:27.216Z,0
2017-09-23T01:37:07.666Z,0
2017-09-23T01:39:20.434Z,0
2017-09-23T01:40:00.884Z,0
2017-09-23T01:40:41.331Z,0
2017-09-23T01:41:22.311Z,0
2017-09-23T01:43:50.227Z,0
2017-09-23T01:44:30.713Z,0
2017-09-23T01:45:11.134Z,0
2017-09-23T01:45:51.601Z,0
2017-09-23T01:46:32.095Z,0
2017-09-23T01:49:05.080Z,0
2017-09-23T01:51:43.156Z,0
2017-09-23T01:52:23.629Z,0
2017-09-23T01:53:04.132Z,0
2017-09-23T01:53:44.584Z,0
2017-09-23T01:54:25.059Z,0
2017-09-23T01:55:05.571Z,0
2017-09-23T01:55:45.987Z,0
2017-09-23T01:56:26.426Z,0
2017-09-23T01:57:06.892Z,0
2017-09-23T01:57:47.382Z,0
2017-09-23T02:00:20.526Z,0
2017-09-23T02:01:00.946Z,0
2017-09-23T02:01:42.013Z,0
2017-09-23T02:02:22.467Z,0
2017-09-23T02:03:02.886Z,0
2017-09-23T02:03:43.346Z,0
2017-09-23T02:04:23.800Z,0
2017-09-23T02:05:04.218Z,0
2017-09-23T02:05:44.659Z,0
2017-09-23T02:06:25.123Z,0
2017-09-23T02:07:05.552Z,0
2017-09-23T02:07:46.095Z,0
2017-09-23T02:08:26.476Z,0
2017-09-23T02:09:06.926Z,0
2017-09-23T02:09:47.377Z,0
2017-09-23T02:10:27.808Z,0
2017-09-23T02:11:08.231Z,0
2017-09-23T02:11:48.668Z,0
2017-09-23T02:12:29.136Z,0
2017-09-23T02:13:09.563Z,0
2017-09-23T02:13:50.002Z,0
2017-09-23T02:14:30.431Z,0
2017-09-23T02:15:10.902Z,0
2017-09-23T02:15:51.320Z,0
2017-09-23T02:16:31.765Z,0
2017-09-23T02:17:12.242Z,0
2017-09-23T02:17:52.693Z,0
2017-09-23T02:18:33.171Z,0
2017-09-23T02:19:13.607Z,0
2017-09-23T02:19:54.037Z,0
2017-09-23T02:20:34.482Z,0
2017-09-23T02:21:14.922Z,0
2017-09-23T02:21:55.379Z,0
2017-09-23T02:22:35.880Z,0
2017-09-23T02:23:16.246Z,0
2017-09-23T02:23:56.723Z,0
2017-09-23T02:24:37.211Z,0
2017-09-23T02:25:17.668Z,0
2017-09-23T02:25:58.150Z,0
2017-09-23T02:26:38.601Z,0
2017-09-23T02:27:19.065Z,0
2017-09-23T02:27:59.483Z,0
2017-09-23T02:28:39.932Z,0
2017-09-23T02:29:20.365Z,0
2017-09-23T02:30:00.849Z,0
2017-09-23T02:30:41.309Z,0
2017-09-23T02:31:21.771Z,0
2017-09-23T02:35:37.281Z,0
2017-09-23T02:36:17.776Z,0
2017-09-23T02:36:58.284Z,0
2017-09-23T02:37:38.783Z,0
2017-09-23T02:38:19.268Z,0
2017-09-23T02:38:59.713Z,0
2017-09-23T02:39:40.160Z,0
2017-09-23T02:40:20.622Z,0
2017-09-23T02:41:01.091Z,0
2017-09-23T02:41:41.543Z,0
2017-09-23T02:42:22.057Z,0
2017-09-23T02:43:02.629Z,0
2017-09-23T02:43:43.059Z,0
2017-09-23T02:44:23.487Z,0
2017-09-23T02:45:03.922Z,0
2017-09-23T02:45:44.377Z,0
2017-09-23T02:46:24.851Z,0
2017-09-23T02:47:05.355Z,0
2017-09-23T02:47:45.805Z,0
2017-09-23T02:48:26.289Z,0
2017-09-23T02:49:06.730Z,0
2017-09-23T02:49:47.183Z,0
2017-09-23T02:50:27.657Z,0
2017-09-23T02:51:08.113Z,0
2017-09-23T02:51:48.563Z,0
2017-09-23T02:52:28.991Z,0
2017-09-23T02:53:09.468Z,0
2017-09-23T02:53:49.848Z,0
2017-09-23T02:56:22.971Z,0
2017-09-23T02:57:03.490Z,0
2017-09-23T02:57:43.937Z,0
2017-09-23T02:58:24.913Z,0
2017-09-23T02:59:05.399Z,0
2017-09-23T02:59:45.813Z,0
2017-09-23T03:00:26.253Z,0
2017-09-23T03:01:06.707Z,0
2017-09-23T03:01:47.136Z,0
2017-09-23T03:02:27.557Z,0
2017-09-23T03:03:08.013Z,0
2017-09-23T03:03:48.459Z,0
2017-09-23T03:04:28.977Z,0
2017-09-23T03:05:09.415Z,0
2017-09-23T03:05:49.836Z,0
2017-09-23T03:06:30.299Z,0
2017-09-23T03:07:10.755Z,0
2017-09-23T03:07:51.273Z,0
2017-09-23T03:08:31.761Z,0
2017-09-23T03:09:12.222Z,0
2017-09-23T03:09:52.668Z,0
2017-09-23T03:10:33.125Z,0
2017-09-23T03:11:13.594Z,0
2017-09-23T03:11:54.016Z,0
2017-09-23T03:12:34.492Z,0
2017-09-23T03:13:14.916Z,0
2017-09-23T03:13:55.377Z,0
2017-09-23T03:14:35.786Z,0
2017-09-23T03:15:16.253Z,0
2017-09-23T03:15:56.720Z,0
2017-09-23T03:16:37.174Z,0
2017-09-23T03:17:17.630Z,0
2017-09-23T03:17:58.078Z,0
2017-09-23T03:18:38.544Z,0
2017-09-23T03:19:18.985Z,0
2017-09-23T03:21:31.708Z,0
2017-09-23T03:22:12.159Z,0
2017-09-23T03:22:52.576Z,0
2017-09-23T03:25:10.374Z,0
2017-09-23T03:25:50.846Z,0
2017-09-23T03:26:31.355Z,0
2017-09-23T03:27:11.808Z,0
2017-09-23T03:27:52.301Z,0
2017-09-23T03:28:32.729Z,0
2017-09-23T03:29:13.204Z,0
2017-09-23T03:29:53.624Z,0
2017-09-23T03:30:34.094Z,0
2017-09-23T03:31:14.531Z,0
2017-09-23T03:31:54.972Z,0
2017-09-23T03:32:35.422Z,0
2017-09-23T03:33:15.832Z,0
2017-09-23T03:33:56.268Z,0
2017-09-23T03:34:36.742Z,0
2017-09-23T03:35:17.259Z,0
2017-09-23T03:35:57.661Z,0
2017-09-23T03:36:38.112Z,0
2017-09-23T03:37:18.576Z,0
2017-09-23T03:37:59.079Z,0
2017-09-23T03:38:39.523Z,0
2017-09-23T03:39:19.990Z,0
2017-09-23T03:40:00.411Z,0
2017-09-23T03:40:41.767Z,0
2017-09-23T03:41:22.375Z,0
2017-09-23T03:42:02.880Z,0
2017-09-23T03:42:43.276Z,0
2017-09-23T03:43:23.740Z,0
2017-09-23T03:44:04.240Z,0
2017-09-23T03:44:44.669Z,0
2017-09-23T03:45:25.087Z,0
2017-09-23T03:46:05.590Z,0
2017-09-23T03:46:46.053Z,0
2017-09-23T03:47:26.515Z,0
2017-09-23T03:48:06.920Z,0
2017-09-23T03:48:47.383Z,0
2017-09-23T03:49:27.823Z,0
2017-09-23T03:50:08.292Z,0
2017-09-23T03:52:46.457Z,0
2017-09-23T03:53:26.950Z,0
2017-09-23T03:54:07.433Z,0
2017-09-23T03:54:47.913Z,0
2017-09-23T03:55:29.227Z,0
2017-09-23T03:56:09.695Z,0
2017-09-23T03:56:50.107Z,0
2017-09-23T03:57:30.626Z,0
2017-09-23T03:58:11.080Z,0
2017-09-23T03:58:52.221Z,0
2017-09-23T03:59:32.650Z,0
2017-09-23T04:00:13.085Z,0
2017-09-23T04:00:53.532Z,0
2017-09-23T04:01:33.935Z,0
2017-09-23T04:02:14.353Z,0
2017-09-23T04:02:54.816Z,0
2017-09-23T04:03:35.251Z,0
2017-09-23T04:04:15.717Z,0
2017-09-23T04:04:56.133Z,0
2017-09-23T04:05:36.592Z,0
2017-09-23T04:06:17.036Z,0
2017-09-23T04:06:57.486Z,0
2017-09-23T04:07:37.971Z,0
2017-09-23T04:08:18.403Z,0
2017-09-23T04:08:58.846Z,0
2017-09-23T04:09:39.275Z,0
2017-09-23T04:10:19.722Z,0
2017-09-23T04:11:00.199Z,0
2017-09-23T04:11:40.611Z,0
2017-09-23T04:12:21.052Z,0
2017-09-23T04:13:01.500Z,0
2017-09-23T04:13:41.954Z,0
2017-09-23T04:14:22.399Z,0
2017-09-23T04:15:02.856Z,0
2017-09-23T04:15:43.259Z,0
2017-09-23T04:16:23.688Z,0
2017-09-23T04:17:04.143Z,0
2017-09-23T04:17:44.562Z,0
2017-09-23T04:18:25.057Z,0
2017-09-23T04:19:05.492Z,0
2017-09-23T04:19:45.946Z,0
2017-09-23T04:20:26.394Z,0
2017-09-23T04:21:06.825Z,0
2017-09-23T04:21:47.274Z,0
2017-09-23T04:22:27.728Z,0
2017-09-23T04:23:08.147Z,0
2017-09-23T04:23:48.607Z,0
2017-09-23T04:24:29.060Z,0
2017-09-23T04:25:09.462Z,0
2017-09-23T04:25:49.911Z,0
2017-09-23T04:26:30.368Z,0
2017-09-23T04:27:10.812Z,0
2017-09-23T04:27:51.276Z,0
2017-09-23T04:28:32.416Z,0
2017-09-23T04:29:12.856Z,0
2017-09-23T04:29:53.281Z,0
2017-09-23T04:30:33.748Z,0
2017-09-23T04:31:14.208Z,0
2017-09-23T04:31:54.702Z,0
2017-09-23T04:32:35.268Z,0
2017-09-23T04:33:15.735Z,0
2017-09-23T04:33:56.207Z,0
2017-09-23T04:34:36.603Z,0
2017-09-23T04:35:17.059Z,0
2017-09-23T04:35:57.492Z,0
2017-09-23T04:36:37.970Z,0
2017-09-23T04:37:18.414Z,0
2017-09-23T04:39:31.152Z,0
2017-09-23T04:40:11.808Z,0
2017-09-23T04:40:52.250Z,0
2017-09-23T04:41:32.727Z,0
2017-09-23T04:42:13.141Z,0
2017-09-23T04:42:53.567Z,0
2017-09-23T04:43:34.050Z,0
2017-09-23T04:44:14.483Z,0
2017-09-23T04:44:54.996Z,0
2017-09-23T04:45:35.432Z,0
2017-09-23T04:46:15.877Z,0
2017-09-23T04:46:56.281Z,0
2017-09-23T04:47:37.390Z,0
2017-09-23T04:48:17.830Z,0
2017-09-23T04:48:58.313Z,0
2017-09-23T04:49:38.797Z,0
2017-09-23T04:50:19.225Z,0
2017-09-23T04:52:37.366Z,0
2017-09-23T04:53:17.835Z,0
2017-09-23T04:53:58.288Z,0
2017-09-23T04:56:10.996Z,0
2017-09-23T04:56:51.457Z,0
2017-09-23T04:57:31.904Z,0
2017-09-23T04:58:12.362Z,0
2017-09-23T04:58:52.772Z,0
2017-09-23T05:01:25.787Z,0
2017-09-23T05:02:06.265Z,0
2017-09-23T05:02:46.745Z,0
2017-09-23T05:03:27.244Z,0
2017-09-23T05:04:07.664Z,0
2017-09-23T05:04:48.108Z,0
2017-09-23T05:05:28.560Z,0
2017-09-23T05:06:08.995Z,0
2017-09-23T05:06:49.436Z,0
2017-09-23T05:07:29.888Z,0
2017-09-23T05:08:10.364Z,0
2017-09-23T05:08:50.791Z,0
2017-09-23T05:09:31.251Z,0
2017-09-23T05:10:11.716Z,0
2017-09-23T05:10:52.155Z,5
2017-09-23T05:11:32.575Z,5
2017-09-23T05:12:13.040Z,5
2017-09-23T05:12:53.485Z,5
2017-09-23T05:13:33.916Z,5
2017-09-23T05:14:14.407Z,5
2017-09-23T05:14:54.853Z,5
2017-09-23T05:15:35.360Z,5
2017-09-23T05:16:15.822Z,5
2017-09-23T05:16:56.250Z,5
2017-09-23T05:17:36.706Z,5
2017-09-23T05:18:17.146Z,5
2017-09-23T05:18:57.590Z,10
2017-09-23T05:19:38.056Z,10
2017-09-23T05:20:18.463Z,10
2017-09-23T05:20:58.892Z,10
2017-09-23T05:21:39.322Z,10
2017-09-23T05:22:19.791Z,10
2017-09-23T05:23:00.261Z,10
2017-09-23T05:23:40.744Z,10
2017-09-23T05:24:21.173Z,15
2017-09-23T05:25:01.604Z,15
2017-09-23T05:25:42.057Z,15
2017-09-23T05:26:22.547Z,15
2017-09-23T05:27:02.934Z,15
2017-09-23T05:27:43.414Z,15
2017-09-23T05:28:23.882Z,20
2017-09-23T05:29:04.391Z,20
2017-09-23T05:29:44.953Z,20
2017-09-23T05:30:25.351Z,20
2017-09-23T05:31:05.792Z,20
2017-09-23T05:31:46.244Z,25
2017-09-23T05:32:26.710Z,25
2017-09-23T05:33:07.143Z,25
2017-09-23T05:33:47.605Z,25
2017-09-23T05:34:28.851Z,25
2017-09-23T05:35:09.354Z,30
2017-09-23T05:35:49.788Z,30
2017-09-23T05:36:30.402Z,30
2017-09-23T05:37:10.982Z,30
2017-09-23T05:37:51.516Z,35
2017-09-23T05:38:31.990Z,35
2017-09-23T05:39:12.467Z,35
2017-09-23T05:39:52.931Z,40
2017-09-23T05:40:34.201Z,40
2017-09-23T05:41:14.748Z,40
2017-09-23T05:41:55.277Z,40
2017-09-23T05:42:35.790Z,40
2017-09-23T05:43:16.312Z,45
2017-09-23T05:43:56.804Z,45
2017-09-23T05:44:37.252Z,45
2017-09-23T05:45:17.759Z,45
2017-09-23T05:45:58.318Z,45
2017-09-23T05:46:38.865Z,50
2017-09-23T05:47:19.441Z,50
2017-09-23T05:47:59.977Z,50
2017-09-23T05:48:40.565Z,50
2017-09-23T05:49:21.092Z,55
2017-09-23T05:50:01.704Z,55
2017-09-23T05:50:42.173Z,55
2017-09-23T05:51:22.605Z,55
2017-09-23T05:52:03.028Z,55
2017-09-23T05:52:43.463Z,60
2017-09-23T05:53:23.907Z,60
2017-09-23T05:54:04.345Z,60
2017-09-23T05:54:44.768Z,60
2017-09-23T05:55:25.205Z,65
2017-09-23T05:57:58.224Z,70
2017-09-23T05:58:38.714Z,70
2017-09-23T05:59:19.171Z,75
2017-09-23T05:59:59.591Z,75
2017-09-23T06:00:40.042Z,75
2017-09-23T06:01:20.508Z,75
2017-09-23T06:02:00.948Z,75
2017-09-23T06:02:41.341Z,75
2017-09-23T06:03:21.787Z,80
2017-09-23T06:04:02.262Z,85
2017-09-23T06:04:42.721Z,80
2017-09-23T06:05:23.177Z,80
2017-09-23T06:06:03.654Z,85
2017-09-23T06:06:44.084Z,85
2017-09-23T06:07:24.570Z,85
2017-09-23T06:08:05.007Z,85
2017-09-23T06:08:45.448Z,85
2017-09-23T06:09:26.519Z,85
2017-09-23T06:10:06.965Z,90
2017-09-23T06:10:47.407Z,90
2017-09-23T06:11:27.862Z,90
2017-09-23T06:12:08.275Z,95
2017-09-23T06:12:48.710Z,95
2017-09-23T06:13:29.143Z,100
2017-09-23T06:14:09.611Z,100
2017-09-23T06:14:50.093Z,100
2017-09-23T06:17:17.965Z,110
2017-09-23T06:17:58.416Z,110
2017-09-23T06:18:38.860Z,110
2017-09-23T06:19:19.292Z,115
2017-09-23T06:19:59.722Z,115
2017-09-23T06:20:40.182Z,115
2017-09-23T06:21:20.640Z,115
2017-09-23T06:22:01.074Z,120
2017-09-23T06:22:41.557Z,120
2017-09-23T06:23:22.071Z,125
2017-09-23T06:24:02.500Z,125
2017-09-23T06:24:42.948Z,130
2017-09-23T06:25:23.374Z,130
2017-09-23T06:26:03.838Z,135
2017-09-23T06:26:44.247Z,135
2017-09-23T06:27:24.674Z,135
2017-09-23T06:28:05.105Z,140
2017-09-23T06:28:45.571Z,140
2017-09-23T06:29:25.998Z,140
2017-09-23T06:30:06.476Z,140
2017-09-23T06:30:46.925Z,145
2017-09-23T06:31:27.370Z,145
2017-09-23T06:32:07.826Z,145
2017-09-23T06:32:48.419Z,150
2017-09-23T06:33:28.858Z,150
2017-09-23T06:34:09.300Z,155
2017-09-23T06:34:49.815Z,155
2017-09-23T06:35:30.252Z,160
2017-09-23T06:36:10.696Z,160
2017-09-23T06:36:51.139Z,160
2017-09-23T06:37:31.599Z,160
2017-09-23T06:38:12.058Z,165
2017-09-23T06:38:52.519Z,165
2017-09-23T06:39:32.970Z,165
2017-09-23T06:40:13.417Z,165
2017-09-23T06:40:53.850Z,165
2017-09-23T06:41:34.271Z,170
2017-09-23T06:42:14.820Z,170
2017-09-23T06:42:55.218Z,175
2017-09-23T06:43:35.649Z,175
2017-09-23T06:44:16.112Z,180
2017-09-23T06:44:56.552Z,185
2017-09-23T06:45:36.998Z,185
2017-09-23T06:46:17.455Z,190
2017-09-23T06:46:57.883Z,195
2017-09-23T06:47:38.348Z,200
2017-09-23T06:50:16.412Z,215
2017-09-23T06:50:56.932Z,245
2017-09-23T06:51:37.417Z,240
2017-09-23T06:52:17.868Z,250
2017-09-23T06:52:58.344Z,230
2017-09-23T06:53:38.802Z,205
2017-09-23T06:54:19.222Z,205
2017-09-23T06:54:59.667Z,210
2017-09-23T06:55:40.112Z,200
2017-09-23T06:56:20.546Z,205
2017-09-23T06:57:00.963Z,205
2017-09-23T06:57:41.441Z,215
2017-09-23T06:58:21.892Z,225
2017-09-23T06:59:02.333Z,245
2017-09-23T06:59:42.772Z,280
2017-09-23T07:00:23.218Z,260
2017-09-23T07:01:03.667Z,280
2017-09-23T07:01:44.112Z,280
2017-09-23T07:02:24.551Z,250
2017-09-23T07:03:04.968Z,270
2017-09-23T07:03:45.417Z,255
2017-09-23T07:04:25.904Z,250
2017-09-23T07:05:06.333Z,285
2017-09-23T07:05:46.781Z,305
2017-09-23T07:06:27.256Z,260
2017-09-23T07:07:07.710Z,225
2017-09-23T07:07:48.125Z,230
2017-09-23T07:08:28.612Z,220
2017-09-23T07:09:09.065Z,220
2017-09-23T07:09:49.580Z,220
2017-09-23T07:10:30.073Z,220
2017-09-23T07:11:10.519Z,220
2017-09-23T07:11:50.953Z,225
2017-09-23T07:12:31.391Z,225
2017-09-23T07:13:11.852Z,230
2017-09-23T07:13:52.883Z,235
2017-09-23T07:14:33.348Z,240
2017-09-23T07:15:13.780Z,270
2017-09-23T07:15:54.250Z,305
2017-09-23T07:16:34.709Z,335
2017-09-23T07:17:15.093Z,325
2017-09-23T07:17:55.552Z,295
2017-09-23T07:18:36.005Z,270
2017-09-23T07:19:16.459Z,245
2017-09-23T07:19:56.923Z,215
2017-09-23T07:20:37.357Z,225
2017-09-23T07:21:17.797Z,260
2017-09-23T07:21:58.248Z,235
2017-09-23T07:22:38.706Z,225
2017-09-23T07:23:19.167Z,260
2017-09-23T07:23:59.607Z,270
2017-09-23T07:24:40.040Z,230
2017-09-23T07:25:20.501Z,225
2017-09-23T07:27:58.567Z,255
2017-09-23T07:28:39.041Z,215
2017-09-23T07:29:19.524Z,210
2017-09-23T07:29:59.995Z,210
2017-09-23T07:30:40.464Z,215
2017-09-23T07:31:21.000Z,225
2017-09-23T07:32:01.361Z,230
2017-09-23T07:32:41.819Z,280
2017-09-23T07:33:22.256Z,310
2017-09-23T07:34:02.725Z,365
2017-09-23T07:34:43.153Z,375
2017-09-23T07:35:23.564Z,370
2017-09-23T07:36:04.027Z,365
2017-09-23T07:36:44.474Z,360
2017-09-23T07:37:24.945Z,360
2017-09-23T07:38:05.366Z,350
2017-09-23T07:38:45.814Z,335
2017-09-23T07:39:26.253Z,310
2017-09-23T07:40:06.713Z,280
2017-09-23T07:40:47.124Z,260
2017-09-23T07:41:27.597Z,250
2017-09-23T07:42:08.048Z,255
2017-09-23T07:42:48.500Z,265
2017-09-23T07:43:28.979Z,280
2017-09-23T07:44:09.413Z,305
2017-09-23T07:44:49.846Z,335
2017-09-23T07:45:30.307Z,360
2017-09-23T07:46:10.778Z,340
2017-09-23T07:46:51.272Z,375
2017-09-23T07:47:31.689Z,385
2017-09-23T07:48:12.126Z,385
2017-09-23T07:48:52.576Z,380
2017-09-23T07:49:33.050Z,385
2017-09-23T07:50:13.492Z,385
2017-09-23T07:50:53.933Z,390
2017-09-23T07:51:34.381Z,390
2017-09-23T07:52:14.827Z,395
2017-09-23T07:52:55.279Z,395
2017-09-23T07:53:35.823Z,400
2017-09-23T07:54:16.232Z,400
2017-09-23T07:54:56.679Z,405
2017-09-23T07:55:37.098Z,410
2017-09-23T07:56:17.562Z,415
2017-09-23T07:56:58.043Z,420
2017-09-23T07:57:38.473Z,420
2017-09-23T07:58:18.982Z,425
2017-09-23T07:58:59.398Z,435
2017-09-23T07:59:39.851Z,440
2017-09-23T08:00:20.317Z,445
2017-09-23T08:01:00.774Z,445
2017-09-23T08:01:41.267Z,445
2017-09-23T08:02:21.673Z,450
2017-09-23T08:04:49.624Z,465
2017-09-23T08:05:30.113Z,470
2017-09-23T08:06:10.606Z,475
2017-09-23T08:06:51.070Z,480
2017-09-23T08:07:31.508Z,480
2017-09-23T08:08:11.942Z,480
2017-09-23T08:08:52.414Z,475
2017-09-23T08:09:32.812Z,470
2017-09-23T08:10:13.257Z,465
2017-09-23T08:12:51.415Z,455
2017-09-23T08:13:31.932Z,450
2017-09-23T08:14:12.386Z,450
2017-09-23T08:16:40.321Z,450
2017-09-23T08:17:20.793Z,445
2017-09-23T08:18:01.256Z,445
2017-09-23T08:18:41.748Z,445
2017-09-23T08:19:22.151Z,445
2017-09-23T08:20:02.606Z,445
2017-09-23T08:20:43.043Z,445
2017-09-23T08:21:23.491Z,445
2017-09-23T08:22:04.037Z,445
2017-09-23T08:22:44.462Z,445
2017-09-23T08:23:25.535Z,445
2017-09-23T08:25:58.541Z,450
2017-09-23T08:26:39.086Z,450
2017-09-23T08:27:19.656Z,455
2017-09-23T08:28:00.130Z,460
2017-09-23T08:28:40.577Z,460
2017-09-23T08:29:21.026Z,460
2017-09-23T08:30:01.474Z,465
2017-09-23T08:30:41.990Z,465
2017-09-23T08:31:22.412Z,465
2017-09-23T08:32:02.932Z,470
2017-09-23T08:32:43.376Z,465
2017-09-23T08:33:23.834Z,465
2017-09-23T08:34:04.287Z,460
2017-09-23T08:34:44.741Z,460
2017-09-23T08:35:25.168Z,465
2017-09-23T08:36:05.628Z,455
2017-09-23T08:36:46.071Z,455
2017-09-23T08:37:26.525Z,455
2017-09-23T08:38:07.001Z,455
2017-09-23T08:40:35.241Z,455
2017-09-23T08:41:15.716Z,460
2017-09-23T08:41:56.181Z,460
2017-09-23T08:42:36.625Z,470
2017-09-23T08:43:17.086Z,470
2017-09-23T08:43:57.535Z,470
2017-09-23T08:44:37.983Z,475
2017-09-23T08:45:18.420Z,475
2017-09-23T08:45:58.879Z,480
2017-09-23T08:46:39.342Z,485
2017-09-23T08:47:19.825Z,480
2017-09-23T08:48:00.259Z,480
2017-09-23T08:48:40.718Z,480
2017-09-23T08:49:21.931Z,485
2017-09-23T08:50:02.346Z,490
2017-09-23T08:50:43.704Z,495
2017-09-23T08:51:24.168Z,495
2017-09-23T08:52:04.619Z,495
2017-09-23T08:52:45.916Z,490
2017-09-23T08:55:19.032Z,505
2017-09-23T08:55:59.540Z,510
2017-09-23T08:56:39.965Z,510
2017-09-23T08:58:57.793Z,520
2017-09-23T08:59:38.247Z,525
2017-09-23T09:00:18.729Z,530
2017-09-23T09:00:59.207Z,530
2017-09-23T09:01:39.647Z,530
2017-09-23T09:02:20.084Z,530
2017-09-23T09:03:00.524Z,525
2017-09-23T09:03:41.016Z,525
2017-09-23T09:04:21.508Z,530
2017-09-23T09:05:01.900Z,530
2017-09-23T09:05:42.345Z,540
2017-09-23T09:06:22.789Z,545
2017-09-23T09:07:03.283Z,550
2017-09-23T09:07:43.721Z,555
2017-09-23T09:08:24.176Z,560
2017-09-23T09:09:04.638Z,550
2017-09-23T09:09:45.149Z,540
2017-09-23T09:10:25.656Z,545
2017-09-23T09:11:06.058Z,540
2017-09-23T09:13:18.814Z,530
2017-09-23T09:13:59.298Z,535
2017-09-23T09:14:40.493Z,530
2017-09-23T09:15:20.978Z,520
2017-09-23T09:16:01.398Z,515
2017-09-23T09:16:41.826Z,515
2017-09-23T09:17:22.850Z,515
2017-09-23T09:18:03.301Z,505
2017-09-23T09:18:43.801Z,520
2017-09-23T09:19:24.256Z,510
2017-09-23T09:20:04.727Z,480
2017-09-23T09:20:45.168Z,465
2017-09-23T09:21:25.628Z,470
2017-09-23T09:22:06.046Z,470
2017-09-23T09:22:46.483Z,475
2017-09-23T09:23:26.901Z,480
2017-09-23T09:24:07.515Z,485
2017-09-23T09:24:47.963Z,500
2017-09-23T09:25:28.387Z,500
2017-09-23T09:26:08.838Z,505
2017-09-23T09:26:49.295Z,515
2017-09-23T09:27:29.720Z,530
2017-09-23T09:28:10.208Z,545
2017-09-23T09:28:50.622Z,565
2017-09-23T09:29:31.058Z,570
2017-09-23T09:30:12.506Z,575
2017-09-23T09:30:52.953Z,585
2017-09-23T09:31:33.433Z,595
2017-09-23T09:32:13.940Z,605
2017-09-23T09:32:54.350Z,605
2017-09-23T09:33:34.833Z,605
2017-09-23T09:34:15.329Z,600
2017-09-23T09:34:55.779Z,595
2017-09-23T09:35:36.228Z,595
2017-09-23T09:36:16.678Z,595
2017-09-23T09:38:29.403Z,585
2017-09-23T09:39:09.896Z,575
2017-09-23T09:39:50.423Z,575
2017-09-23T09:40:30.862Z,595
2017-09-23T09:41:11.302Z,615
2017-09-23T09:41:51.780Z,615
2017-09-23T09:42:32.229Z,595
2017-09-23T09:43:12.705Z,590
2017-09-23T09:43:53.157Z,590
2017-09-23T09:44:33.593Z,585
2017-09-23T09:45:14.052Z,580
2017-09-23T09:45:54.520Z,570
2017-09-23T09:46:34.975Z,560
2017-09-23T09:47:15.444Z,570
2017-09-23T09:47:55.896Z,580
2017-09-23T09:48:36.428Z,575
2017-09-23T09:49:16.865Z,560
2017-09-23T09:49:57.320Z,535
2017-09-23T09:50:37.808Z,510
2017-09-23T09:51:18.239Z,485
2017-09-23T09:51:58.662Z,475
2017-09-23T09:52:39.091Z,465
2017-09-23T09:54:51.829Z,455
2017-09-23T09:55:32.311Z,455
2017-09-23T09:56:12.829Z,455
2017-09-23T09:58:40.800Z,465
2017-09-23T09:59:21.238Z,465
2017-09-23T10:00:01.734Z,465
2017-09-23T10:00:42.194Z,470
2017-09-23T10:01:22.667Z,470
2017-09-23T10:02:03.112Z,475
2017-09-23T10:02:43.569Z,480
2017-09-23T10:03:24.068Z,490
2017-09-23T10:04:04.503Z,500
2017-09-23T10:04:44.977Z,510
2017-09-23T10:05:25.448Z,520
2017-09-23T10:06:05.925Z,535
2017-09-23T10:06:46.368Z,545
2017-09-23T10:07:26.817Z,560
2017-09-23T10:08:07.260Z,565
2017-09-23T10:08:47.750Z,580
2017-09-23T10:09:28.293Z,590
2017-09-23T10:10:08.759Z,615
2017-09-23T10:10:49.224Z,645
2017-09-23T10:11:29.670Z,675
2017-09-23T10:12:10.104Z,700
2017-09-23T10:12:50.597Z,710
2017-09-23T10:13:31.120Z,700
2017-09-23T10:14:11.584Z,700
2017-09-23T10:14:52.036Z,705
2017-09-23T10:15:32.485Z,710
2017-09-23T10:16:12.900Z,720
2017-09-23T10:16:53.362Z,730
2017-09-23T10:17:33.801Z,735
2017-09-23T10:18:14.251Z,735
2017-09-23T10:18:54.700Z,740
2017-09-23T10:19:35.174Z,750
2017-09-23T10:20:15.620Z,760
2017-09-23T10:20:56.163Z,745
2017-09-23T10:23:29.224Z,740
2017-09-23T10:24:09.731Z,740
2017-09-23T10:24:50.264Z,750
2017-09-23T10:25:30.714Z,740
2017-09-23T10:26:11.187Z,735
2017-09-23T10:26:51.641Z,750
2017-09-23T10:27:32.100Z,765
2017-09-23T10:28:12.526Z,760
2017-09-23T10:28:52.989Z,745
2017-09-23T10:29:33.452Z,730
2017-09-23T10:30:13.910Z,735
2017-09-23T10:30:54.333Z,745
2017-09-23T10:31:34.804Z,755
2017-09-23T10:32:15.284Z,770
2017-09-23T10:32:55.734Z,765
2017-09-23T10:33:36.176Z,755
2017-09-23T10:34:16.628Z,760
2017-09-23T10:34:57.776Z,765
2017-09-23T10:35:38.239Z,760
2017-09-23T10:36:18.700Z,750
2017-09-23T10:36:59.182Z,750
2017-09-23T10:37:39.692Z,755
2017-09-23T10:38:20.119Z,755
2017-09-23T10:39:00.565Z,755
2017-09-23T10:39:41.030Z,770
2017-09-23T10:40:21.481Z,780